Time;durP1;ratioP1;P1;durP2;ratioP2;P2;SDS_P1;SDS_P2;PMS_P1;PMS_P2;Temp;Humidity;BMP_temperature;BMP_pressure;BME280_temperature;BME280_humidity;BME280_pressure;Samples;Min_cycle;Max_cycle;Signal;HPM_P1;HPM_P2
2022/08/05 00:00:17;;;;;;;17.13;14.53;;;;;;;;;;762018;178;627145;-56
2022/08/05 00:02:43;;;;;;;21.93;15.40;;;;;;;;;;762268;178;626376;-59
2022/08/05 00:05:09;;;;;;;15.93;13.83;;;;;;;;;;766765;182;621498;-56
2022/08/05 00:07:35;;;;;;;16.20;14.50;;;;;;;;;;763350;185;620238;-59
2022/08/05 00:10:01;;;;;;;17.73;15.60;;;;;;;;;;769059;180;629210;-56
2022/08/05 00:12:26;;;;;;;18.83;16.83;;;;;;;;;;772569;183;609529;-59
2022/08/05 00:14:52;;;;;;;19.53;17.20;;;;;;;;;;769209;183;625027;-59
2022/08/05 00:17:18;;;;;;;18.70;16.10;;;;;;;;;;770150;183;635673;-56
2022/08/05 00:19:44;;;;;;;15.23;13.60;;;;;;;;;;772318;177;625618;-56
2022/08/05 00:22:10;;;;;;;15.87;14.00;;;;;;;;;;768168;177;632429;-56
2022/08/05 00:24:36;;;;;;;14.87;12.80;;;;;;;;;;768340;181;627653;-59
2022/08/05 00:27:01;;;;;;;15.73;13.70;;;;;;;;;;768856;181;635583;-59
2022/08/05 00:29:27;;;;;;;16.33;14.57;;;;;;;;;;769691;178;616462;-59
2022/08/05 00:31:53;;;;;;;17.00;14.90;;;;;;;;;;765687;181;636743;-58
2022/08/05 00:34:19;;;;;;;20.77;16.77;;;;;;;;;;769134;177;624033;-56
2022/08/05 00:36:45;;;;;;;18.10;15.47;;;;;;;;;;765888;182;629410;-56
2022/08/05 00:39:11;;;;;;;21.40;17.80;;;;;;;;;;766161;182;629791;-56
2022/08/05 00:41:37;;;;;;;20.30;17.47;;;;;;;;;;769928;182;618000;-56
2022/08/05 00:44:02;;;;;;;20.07;17.43;;;;;;;;;;773919;177;618531;-56
2022/08/05 00:46:28;;;;;;;19.13;17.10;;;;;;;;;;771197;180;625813;-59
2022/08/05 00:48:54;;;;;;;19.10;17.10;;;;;;;;;;768136;182;630293;-56
2022/08/05 00:51:21;;;;;;;19.60;16.50;;;;;;;;;;766381;184;635516;-59
2022/08/05 00:53:46;;;;;;;21.00;16.93;;;;;;;;;;763759;183;617657;-56
2022/08/05 00:56:12;;;;;;;18.83;15.80;;;;;;;;;;768858;183;639114;-60
2022/08/05 00:58:38;;;;;;;22.33;16.93;;;;;;;;;;767386;180;633691;-59
2022/08/05 01:01:04;;;;;;;21.70;16.10;;;;;;;;;;765769;178;636656;-56
2022/08/05 01:03:30;;;;;;;19.87;17.87;;;;;;;;;;763508;183;625110;-57
2022/08/05 01:05:56;;;;;;;20.53;18.27;;;;;;;;;;769137;177;618798;-59
2022/08/05 01:08:22;;;;;;;22.23;18.13;;;;;;;;;;768539;178;617365;-56
2022/08/05 01:10:50;;;;;;;20.93;18.37;;;;;;;;;;771830;178;624321;-57
2022/08/05 01:13:16;;;;;;;18.93;17.03;;;;;;;;;;770870;177;623436;-60
2022/08/05 01:15:42;;;;;;;21.47;15.47;;;;;;;;;;762006;178;621625;-57
2022/08/05 01:18:08;;;;;;;17.27;14.60;;;;;;;;;;760854;178;624767;-56
2022/08/05 01:20:34;;;;;;;16.27;14.53;;;;;;;;;;763639;178;630428;-58
2022/08/05 01:23:01;;;;;;;14.23;12.83;;;;;;;;;;761825;181;620556;-57
2022/08/05 01:25:33;;;;;;;16.20;14.43;;;;;;;;;;765076;183;621988;-55
2022/08/05 01:28:04;;;;;;;21.67;15.37;;;;;;;;;;763199;179;632729;-59
2022/08/05 01:30:30;;;;;;;17.17;13.37;;;;;;;;;;771633;181;617787;-58
2022/08/05 01:32:56;;;;;;;16.73;14.35;;;;;;;;;;772888;179;628559;-57
2022/08/05 01:35:22;;;;;;;17.03;14.90;;;;;;;;;;768400;180;631101;-57
2022/08/05 01:37:50;;;;;;;15.83;14.13;;;;;;;;;;763658;178;633338;-59
2022/08/05 01:40:16;;;;;;;21.13;14.80;;;;;;;;;;763210;178;627597;-57
2022/08/05 01:42:42;;;;;;;15.20;13.57;;;;;;;;;;765267;178;629461;-59
2022/08/05 01:45:09;;;;;;;21.53;15.67;;;;;;;;;;763116;178;633776;-56
2022/08/05 01:47:35;;;;;;;17.90;14.53;;;;;;;;;;763841;181;625422;-58
2022/08/05 01:50:00;;;;;;;17.00;14.90;;;;;;;;;;763139;179;630082;-58
2022/08/05 01:52:26;;;;;;;18.90;15.63;;;;;;;;;;766504;178;636794;-58
2022/08/05 01:54:52;;;;;;;16.97;14.70;;;;;;;;;;762929;178;631195;-56
2022/08/05 01:57:18;;;;;;;16.17;14.47;;;;;;;;;;763973;179;629748;-58
2022/08/05 01:59:44;;;;;;;16.50;14.30;;;;;;;;;;770205;183;619004;-59
2022/08/05 02:02:10;;;;;;;23.60;14.80;;;;;;;;;;771162;180;637732;-59
2022/08/05 02:04:35;;;;;;;18.83;16.23;;;;;;;;;;770568;179;643303;-59
2022/08/05 02:07:01;;;;;;;23.20;17.20;;;;;;;;;;772994;180;617562;-58
2022/08/05 02:09:27;;;;;;;18.40;16.47;;;;;;;;;;769109;179;634444;-58
2022/08/05 02:12:09;;;;;;;17.30;15.40;;;;;;;;;;769207;182;628894;-57
2022/08/05 02:14:38;;;;;;;18.23;16.30;;;;;;;;;;765805;178;633617;-55
2022/08/05 02:17:04;;;;;;;18.57;15.47;;;;;;;;;;762132;181;628286;-56
2022/08/05 02:19:31;;;;;;;27.17;17.10;;;;;;;;;;766117;182;624675;-56
2022/08/05 02:21:57;;;;;;;20.83;17.73;;;;;;;;;;762088;181;626514;-59
2022/08/05 02:24:22;;;;;;;24.20;18.00;;;;;;;;;;765775;176;624959;-90
2022/08/05 02:26:48;;;;;;;20.47;17.63;;;;;;;;;;748778;186;913078;-91
2022/08/05 02:29:14;;;;;;;22.13;17.60;;;;;;;;;;742698;185;630249;-90
2022/08/05 02:31:40;;;;;;;23.07;19.77;;;;;;;;;;743231;188;713138;-90
2022/08/05 02:34:06;;;;;;;24.00;18.50;;;;;;;;;;743855;188;628434;-90
2022/08/05 02:36:32;;;;;;;22.40;18.63;;;;;;;;;;744077;187;626824;-90
2022/08/05 02:38:58;;;;;;;25.13;20.20;;;;;;;;;;743760;187;638305;-90
2022/08/05 02:41:23;;;;;;;20.60;18.00;;;;;;;;;;751841;188;625126;-91
2022/08/05 02:43:49;;;;;;;23.27;19.40;;;;;;;;;;755279;188;618978;-89
2022/08/05 02:46:15;;;;;;;19.77;17.50;;;;;;;;;;754731;187;727661;-91
2022/08/05 02:48:41;;;;;;;20.03;18.00;;;;;;;;;;755599;187;623536;-91
2022/08/05 02:51:07;;;;;;;21.70;16.70;;;;;;;;;;754522;187;645931;-91
2022/08/05 02:53:33;;;;;;;21.37;17.30;;;;;;;;;;750693;188;642880;-92
2022/08/05 02:55:59;;;;;;;19.60;16.77;;;;;;;;;;752248;187;634625;-91
2022/08/05 02:58:25;;;;;;;19.55;17.23;;;;;;;;;;757722;187;652759;-90
2022/08/05 03:00:54;;;;;;;17.43;15.07;;;;;;;;;;748906;188;614937;-92
2022/08/05 03:03:20;;;;;;;17.33;14.77;;;;;;;;;;752807;187;743330;-91
2022/08/05 03:05:46;;;;;;;22.70;15.00;;;;;;;;;;741703;187;678764;-91
2022/08/05 03:14:04;;;;;;;16.63;13.53;;;;;;;;;;725799;178;27533;31
2022/08/05 03:16:30;;;;;;;18.07;13.57;;;;;;;;;;753963;185;739786;-91
2022/08/05 03:18:56;;;;;;;14.77;13.27;;;;;;;;;;756428;184;725275;-92
2022/08/05 03:21:22;;;;;;;15.20;13.17;;;;;;;;;;770668;181;686173;-91
2022/08/05 03:23:48;;;;;;;15.80;13.10;;;;;;;;;;767566;181;663732;-91
2022/08/05 03:26:14;;;;;;;15.20;13.53;;;;;;;;;;760481;183;634824;-90
2022/08/05 03:28:40;;;;;;;19.13;14.40;;;;;;;;;;757424;184;648039;-90
2022/08/05 03:31:05;;;;;;;15.07;13.45;;;;;;;;;;768033;183;658038;-91
2022/08/05 03:33:31;;;;;;;17.00;13.33;;;;;;;;;;759226;183;1614792;-91
2022/08/05 03:35:57;;;;;;;20.00;13.50;;;;;;;;;;763268;183;688372;-91
2022/08/05 03:38:23;;;;;;;17.60;15.37;;;;;;;;;;760857;183;646212;-91
2022/08/05 03:40:49;;;;;;;15.40;13.73;;;;;;;;;;761796;183;649809;-91
2022/08/05 03:43:15;;;;;;;16.13;14.43;;;;;;;;;;754448;184;740213;-91
2022/08/05 03:45:41;;;;;;;18.37;14.20;;;;;;;;;;755828;183;630432;-92
2022/08/05 03:48:07;;;;;;;15.30;12.57;;;;;;;;;;755153;184;630291;-92
2022/08/05 03:50:33;;;;;;;15.63;13.37;;;;;;;;;;762259;184;679465;-91
2022/08/05 03:53:01;;;;;;;16.90;15.10;;;;;;;;;;755846;183;662664;-91
2022/08/05 03:55:29;;;;;;;17.20;15.20;;;;;;;;;;755145;184;655366;-92
2022/08/05 03:57:55;;;;;;;17.23;14.43;;;;;;;;;;756812;185;644178;-89
2022/08/05 04:00:25;;;;;;;16.43;14.73;;;;;;;;;;765535;183;642361;-91
2022/08/05 04:02:47;;;;;;;20.60;17.20;;;;;;;;;;768721;182;660254;-91
2022/08/05 04:05:13;;;;;;;16.73;14.70;;;;;;;;;;762735;184;636745;-92
2022/08/05 04:07:39;;;;;;;21.77;17.77;;;;;;;;;;769700;181;630532;-91
2022/08/05 04:10:05;;;;;;;20.30;17.00;;;;;;;;;;770163;182;631655;-92
2022/08/05 04:12:31;;;;;;;21.57;18.07;;;;;;;;;;772113;182;633263;-90
2022/08/05 04:14:57;;;;;;;24.53;21.93;;;;;;;;;;765226;183;631817;-91
2022/08/05 04:17:22;;;;;;;23.00;19.37;;;;;;;;;;760270;183;667043;-91
2022/08/05 04:19:48;;;;;;;26.20;21.23;;;;;;;;;;761433;182;637859;-91
2022/08/05 04:22:14;;;;;;;26.40;19.60;;;;;;;;;;769395;182;634745;-90
2022/08/05 04:24:40;;;;;;;23.93;20.90;;;;;;;;;;767774;183;624742;-90
2022/08/05 04:27:06;;;;;;;24.50;20.40;;;;;;;;;;762714;182;658178;-90
2022/08/05 04:29:32;;;;;;;28.77;21.30;;;;;;;;;;760327;183;638456;-90
2022/08/05 04:31:58;;;;;;;25.97;21.87;;;;;;;;;;763533;183;630351;-89
2022/08/05 04:34:24;;;;;;;28.73;19.70;;;;;;;;;;758844;182;650894;-89
2022/08/05 04:36:50;;;;;;;27.50;21.67;;;;;;;;;;764936;183;625980;-86
2022/08/05 04:39:15;;;;;;;27.23;20.27;;;;;;;;;;763668;183;634693;-88
2022/08/05 04:41:41;;;;;;;27.80;19.63;;;;;;;;;;767004;183;629610;-88
2022/08/05 04:44:07;;;;;;;20.17;17.57;;;;;;;;;;765854;183;687986;-89
2022/08/05 04:46:33;;;;;;;45.53;20.80;;;;;;;;;;769576;183;629625;-89
2022/08/05 04:48:59;;;;;;;20.40;15.00;;;;;;;;;;766594;182;629352;-89
2022/08/05 04:51:25;;;;;;;18.37;15.27;;;;;;;;;;763703;183;626841;-87
2022/08/05 04:53:51;;;;;;;20.57;15.70;;;;;;;;;;766130;183;646559;-87
2022/08/05 04:56:17;;;;;;;16.00;14.00;;;;;;;;;;769174;183;625185;-88
2022/08/05 04:58:42;;;;;;;16.17;14.57;;;;;;;;;;765833;183;664799;-88
2022/08/05 05:01:08;;;;;;;14.73;13.13;;;;;;;;;;765391;183;629309;-88
2022/08/05 05:03:34;;;;;;;15.30;13.70;;;;;;;;;;764146;183;627125;-88
2022/08/05 05:06:00;;;;;;;13.30;11.50;;;;;;;;;;765503;183;657422;-89
2022/08/05 05:08:26;;;;;;;14.70;13.20;;;;;;;;;;766300;183;627574;-87
2022/08/05 05:10:52;;;;;;;13.80;12.33;;;;;;;;;;762832;184;674400;-88
2022/08/05 05:13:18;;;;;;;13.00;11.60;;;;;;;;;;766029;182;643044;-88
2022/08/05 05:15:44;;;;;;;13.13;11.82;;;;;;;;;;768540;182;651868;-88
2022/08/05 05:18:13;;;;;;;16.10;11.63;;;;;;;;;;770501;183;629402;-88
2022/08/05 05:20:38;;;;;;;14.00;11.60;;;;;;;;;;765950;183;616471;-89
2022/08/05 05:23:04;;;;;;;13.90;12.30;;;;;;;;;;768621;183;731272;-88
2022/08/05 05:25:30;;;;;;;12.20;10.93;;;;;;;;;;770744;183;630420;-88
2022/08/05 05:27:56;;;;;;;14.33;9.73;;;;;;;;;;777165;181;632649;-88
2022/08/05 05:30:21;;;;;;;13.70;11.00;;;;;;;;;;768544;183;684455;-88
2022/08/05 05:32:47;;;;;;;11.37;10.00;;;;;;;;;;768245;182;635736;-89
2022/08/05 05:35:13;;;;;;;13.03;11.20;;;;;;;;;;772898;182;626841;-88
2022/08/05 05:37:45;;;;;;;11.43;9.70;;;;;;;;;;762541;184;629583;-88
2022/08/05 05:40:11;;;;;;;12.60;10.67;;;;;;;;;;765632;182;710042;-89
2022/08/05 05:42:37;;;;;;;13.63;10.03;;;;;;;;;;763963;184;641343;-88
2022/08/05 05:45:03;;;;;;;12.00;10.33;;;;;;;;;;762823;183;620968;-89
2022/08/05 05:47:29;;;;;;;15.00;10.87;;;;;;;;;;757436;183;624555;-88
2022/08/05 05:49:55;;;;;;;12.50;9.53;;;;;;;;;;754174;182;630665;-88
2022/08/05 05:52:21;;;;;;;14.65;10.75;;;;;;;;;;762913;182;1648979;-88
2022/08/05 05:54:47;;;;;;;10.20;9.13;;;;;;;;;;756479;182;725048;-89
2022/08/05 05:57:13;;;;;;;13.57;9.57;;;;;;;;;;755841;184;628836;-88
2022/08/05 05:59:39;;;;;;;10.80;9.67;;;;;;;;;;759656;184;644150;-88
2022/08/05 06:02:04;;;;;;;9.70;8.70;;;;;;;;;;758672;184;681804;-89
2022/08/05 06:04:30;;;;;;;10.40;9.40;;;;;;;;;;755940;183;842886;-88
2022/08/05 06:06:56;;;;;;;10.53;9.43;;;;;;;;;;751613;182;984561;-88
2022/08/05 06:09:22;;;;;;;10.13;9.13;;;;;;;;;;768806;182;650568;-88
2022/08/05 06:11:48;;;;;;;11.80;10.00;;;;;;;;;;769049;183;627568;-89
2022/08/05 06:14:14;;;;;;;11.43;9.33;;;;;;;;;;762906;183;666169;-88
2022/08/05 06:16:40;;;;;;;12.20;8.30;;;;;;;;;;762025;183;628916;-88
2022/08/05 06:19:05;;;;;;;9.27;7.70;;;;;;;;;;763358;182;637257;-87
2022/08/05 06:21:31;;;;;;;10.50;8.90;;;;;;;;;;759352;183;653388;-88
2022/08/05 06:23:58;;;;;;;9.83;7.60;;;;;;;;;;762086;184;649223;-89
2022/08/05 06:26:23;;;;;;;10.37;8.30;;;;;;;;;;757233;183;731782;-87
2022/08/05 06:28:49;;;;;;;9.60;8.70;;;;;;;;;;757272;183;631607;-89
2022/08/05 06:31:15;;;;;;;12.33;8.43;;;;;;;;;;761894;183;672546;-88
2022/08/05 06:33:41;;;;;;;8.80;7.90;;;;;;;;;;746436;185;677088;-89
2022/08/05 06:36:06;;;;;;;8.43;6.90;;;;;;;;;;751331;183;673675;-88
2022/08/05 06:38:32;;;;;;;8.90;7.30;;;;;;;;;;756949;183;639579;-89
2022/08/05 06:40:58;;;;;;;8.30;7.50;;;;;;;;;;763888;183;654837;-88
2022/08/05 06:43:24;;;;;;;9.07;7.73;;;;;;;;;;761391;184;662130;-89
2022/08/05 06:45:50;;;;;;;10.10;7.43;;;;;;;;;;765759;182;631854;-88
2022/08/05 06:48:16;;;;;;;8.37;7.47;;;;;;;;;;763549;184;682665;-89
2022/08/05 06:50:42;;;;;;;7.70;6.90;;;;;;;;;;756069;183;660059;-89
2022/08/05 06:53:08;;;;;;;8.77;7.10;;;;;;;;;;758041;183;634840;-90
2022/08/05 06:55:34;;;;;;;11.10;7.53;;;;;;;;;;758778;184;619048;-88
2022/08/05 06:57:59;;;;;;;9.47;7.33;;;;;;;;;;762080;183;654885;-88
2022/08/05 07:00:25;;;;;;;8.27;7.33;;;;;;;;;;761842;182;677057;-88
2022/08/05 07:02:51;;;;;;;8.43;7.40;;;;;;;;;;758624;184;624371;-88
2022/08/05 07:05:17;;;;;;;8.17;7.07;;;;;;;;;;761237;184;614655;-89
2022/08/05 07:07:47;;;;;;;7.63;6.20;;;;;;;;;;757377;182;674421;-88
2022/08/05 07:10:09;;;;;;;7.83;7.00;;;;;;;;;;757119;183;631637;-88
2022/08/05 07:17:39;;;;;;;7.20;6.20;;;;;;;;;;756781;182;668800;-89
2022/08/05 07:20:05;;;;;;;11.80;7.03;;;;;;;;;;758299;183;633972;-89
2022/08/05 07:22:31;;;;;;;9.10;6.37;;;;;;;;;;761300;183;636477;-90
2022/08/05 07:24:56;;;;;;;8.30;5.50;;;;;;;;;;759481;184;623576;-89
2022/08/05 07:27:22;;;;;;;6.70;6.03;;;;;;;;;;756964;185;644184;-89
2022/08/05 07:29:48;;;;;;;6.77;6.13;;;;;;;;;;769698;179;636886;-60
2022/08/05 07:32:14;;;;;;;7.37;5.83;;;;;;;;;;779017;180;624524;-60
2022/08/05 07:34:40;;;;;;;8.30;6.77;;;;;;;;;;779755;177;631535;-57
2022/08/05 07:37:06;;;;;;;7.13;6.00;;;;;;;;;;776839;180;645811;-60
2022/08/05 07:39:33;;;;;;;7.00;5.77;;;;;;;;;;781652;180;632117;-62
2022/08/05 07:41:58;;;;;;;5.90;5.20;;;;;;;;;;774733;180;632170;-58
2022/08/05 07:44:24;;;;;;;5.50;5.00;;;;;;;;;;784387;179;636858;-58
2022/08/05 07:46:49;;;;;;;9.40;5.83;;;;;;;;;;785480;179;619379;-61
2022/08/05 07:49:15;;;;;;;5.70;5.10;;;;;;;;;;782360;176;617427;-61
2022/08/05 07:51:41;;;;;;;5.80;4.93;;;;;;;;;;782197;177;615428;-60
2022/08/05 07:54:07;;;;;;;5.30;4.30;;;;;;;;;;785770;180;630366;-62
2022/08/05 07:56:33;;;;;;;4.90;4.40;;;;;;;;;;779021;176;614669;-57
2022/08/05 07:58:59;;;;;;;5.90;4.50;;;;;;;;;;780231;180;624765;-58
2022/08/05 08:01:26;;;;;;;5.70;5.07;;;;;;;;;;779812;180;629475;-61
2022/08/05 08:03:50;;;;;;;6.27;5.07;;;;;;;;;;782753;180;633574;-58
2022/08/05 08:06:16;;;;;;;7.07;5.30;;;;;;;;;;779669;180;626597;-58
2022/08/05 08:08:42;;;;;;;5.97;5.33;;;;;;;;;;779701;180;627692;-61
2022/08/05 08:11:08;;;;;;;5.33;4.83;;;;;;;;;;782828;177;621044;-58
2022/08/05 08:13:34;;;;;;;7.70;4.90;;;;;;;;;;781922;179;618988;-62
2022/08/05 08:15:59;;;;;;;7.33;4.90;;;;;;;;;;780688;177;619131;-58
2022/08/05 08:18:25;;;;;;;7.20;5.90;;;;;;;;;;782122;177;623179;-58
2022/08/05 08:20:51;;;;;;;6.23;4.60;;;;;;;;;;778858;177;624072;-58
2022/08/05 08:23:17;;;;;;;6.93;5.27;;;;;;;;;;779249;177;626793;-57
2022/08/05 08:25:43;;;;;;;8.07;4.33;;;;;;;;;;778806;180;633678;-60
2022/08/05 08:28:09;;;;;;;8.43;4.60;;;;;;;;;;778810;180;627943;-61
2022/08/05 08:30:34;;;;;;;5.80;4.90;;;;;;;;;;768354;180;619924;-61
2022/08/05 08:33:00;;;;;;;6.30;4.37;;;;;;;;;;781774;177;621815;-58
2022/08/05 08:35:26;;;;;;;5.37;4.83;;;;;;;;;;783517;180;622990;-58
2022/08/05 08:37:52;;;;;;;8.70;5.23;;;;;;;;;;783224;177;627543;-58
2022/08/05 08:40:18;;;;;;;5.83;4.87;;;;;;;;;;781684;177;622914;-63
2022/08/05 08:42:44;;;;;;;7.53;5.20;;;;;;;;;;785099;180;626676;-62
2022/08/05 08:45:10;;;;;;;8.43;5.40;;;;;;;;;;778436;177;633998;-63
2022/08/05 08:47:36;;;;;;;9.90;4.70;;;;;;;;;;773670;180;629256;-58
2022/08/05 08:50:01;;;;;;;10.97;4.60;;;;;;;;;;774829;180;626274;-58
2022/08/05 08:52:28;;;;;;;5.87;4.57;;;;;;;;;;779063;180;628953;-60
2022/08/05 08:54:54;;;;;;;5.73;5.13;;;;;;;;;;782460;178;628419;-59
2022/08/05 08:57:20;;;;;;;5.83;5.20;;;;;;;;;;780535;176;623753;-61
2022/08/05 08:59:46;;;;;;;9.70;4.80;;;;;;;;;;784932;179;623914;-58
2022/08/05 09:02:13;;;;;;;8.50;5.47;;;;;;;;;;775794;179;629969;-61
2022/08/05 09:04:37;;;;;;;10.50;5.03;;;;;;;;;;777282;180;635424;-58
2022/08/05 09:07:04;;;;;;;5.97;5.40;;;;;;;;;;788497;180;632173;-58
2022/08/05 09:09:29;;;;;;;5.63;4.43;;;;;;;;;;779998;179;618813;-61
2022/08/05 09:11:55;;;;;;;8.03;5.10;;;;;;;;;;780158;176;634116;-60
2022/08/05 09:14:21;;;;;;;5.20;4.70;;;;;;;;;;785099;178;624954;-59
2022/08/05 09:16:47;;;;;;;5.57;4.77;;;;;;;;;;780319;180;627092;-62
2022/08/05 09:19:13;;;;;;;5.87;4.80;;;;;;;;;;773290;179;617926;-58
2022/08/05 09:21:39;;;;;;;7.20;4.17;;;;;;;;;;780694;180;618529;-61
2022/08/05 09:24:07;;;;;;;5.20;4.70;;;;;;;;;;785041;180;619026;-61
2022/08/05 09:26:31;;;;;;;6.23;4.50;;;;;;;;;;776517;180;620337;-59
2022/08/05 09:28:57;;;;;;;13.83;4.87;;;;;;;;;;776452;180;624616;-58
2022/08/05 09:31:23;;;;;;;6.43;4.10;;;;;;;;;;781076;181;620487;-58
2022/08/05 09:33:51;;;;;;;5.20;3.93;;;;;;;;;;777015;180;629452;-61
2022/08/05 09:36:17;;;;;;;5.27;4.50;;;;;;;;;;779366;180;618343;-62
2022/08/05 09:38:48;;;;;;;4.30;3.80;;;;;;;;;;779835;180;626958;-58
2022/08/05 09:41:14;;;;;;;12.80;4.40;;;;;;;;;;778261;180;615938;-58
2022/08/05 09:43:40;;;;;;;5.93;4.40;;;;;;;;;;779059;177;619148;-61
2022/08/05 09:46:10;;;;;;;12.03;4.87;;;;;;;;;;771361;180;632418;-57
2022/08/05 09:48:32;;;;;;;7.07;4.63;;;;;;;;;;783565;180;617094;-64
2022/08/05 09:50:58;;;;;;;6.00;4.27;;;;;;;;;;781994;180;626559;-65
2022/08/05 09:53:24;;;;;;;4.83;4.23;;;;;;;;;;781822;177;623366;-64
2022/08/05 09:55:50;;;;;;;9.53;3.83;;;;;;;;;;778960;180;623779;-59
2022/08/05 09:58:16;;;;;;;4.97;4.47;;;;;;;;;;778706;180;623402;-63
2022/08/05 10:00:48;;;;;;;8.40;4.30;;;;;;;;;;779778;180;621178;-59
2022/08/05 10:03:13;;;;;;;5.07;4.20;;;;;;;;;;778644;177;631909;-58
2022/08/05 10:05:40;;;;;;;5.40;4.53;;;;;;;;;;787179;177;616796;-65
2022/08/05 10:08:05;;;;;;;5.17;4.67;;;;;;;;;;780977;179;631419;-59
2022/08/05 10:10:42;;;;;;;4.70;4.03;;;;;;;;;;776752;179;645397;-59
2022/08/05 10:13:07;;;;;;;4.17;3.60;;;;;;;;;;779427;180;623791;-59
2022/08/05 10:15:33;;;;;;;4.63;3.80;;;;;;;;;;784333;179;636779;-63
2022/08/05 10:18:04;;;;;;;5.40;4.13;;;;;;;;;;781868;179;632967;-59
2022/08/05 10:20:31;;;;;;;6.50;4.83;;;;;;;;;;781165;180;618202;-62
2022/08/05 10:22:57;;;;;;;9.33;4.87;;;;;;;;;;781886;177;616108;-59
2022/08/05 10:25:23;;;;;;;8.13;4.80;;;;;;;;;;782885;180;627449;-59
2022/08/05 10:27:49;;;;;;;5.67;4.20;;;;;;;;;;781460;177;618452;-60
2022/08/05 10:30:14;;;;;;;5.43;4.40;;;;;;;;;;778541;180;619100;-63
2022/08/05 10:32:40;;;;;;;5.87;4.23;;;;;;;;;;780335;180;637430;-59
2022/08/05 10:35:07;;;;;;;5.40;4.50;;;;;;;;;;763930;183;621871;-60
2022/08/05 10:37:32;;;;;;;4.73;3.97;;;;;;;;;;771220;180;625557;-61
2022/08/05 10:39:58;;;;;;;7.60;4.83;;;;;;;;;;786165;180;627006;-64
2022/08/05 10:42:24;;;;;;;10.23;4.63;;;;;;;;;;781511;180;625193;-59
2022/08/05 10:44:50;;;;;;;5.77;4.80;;;;;;;;;;779708;180;627747;-63
2022/08/05 10:47:16;;;;;;;5.63;4.40;;;;;;;;;;778614;180;634972;-64
2022/08/05 10:49:47;;;;;;;7.33;4.37;;;;;;;;;;777451;180;623815;-62
2022/08/05 10:52:13;;;;;;;7.23;4.93;;;;;;;;;;774623;180;621343;-64
2022/08/05 10:54:47;;;;;;;4.90;4.30;;;;;;;;;;779994;180;623114;-64
2022/08/05 10:57:13;;;;;;;5.17;4.27;;;;;;;;;;781996;180;621987;-65
2022/08/05 10:59:39;;;;;;;4.83;4.20;;;;;;;;;;782413;177;632888;-65
2022/08/05 11:02:09;;;;;;;5.30;4.77;;;;;;;;;;780342;177;629304;-59
2022/08/05 11:04:40;;;;;;;6.53;4.30;;;;;;;;;;771603;181;638321;-59
2022/08/05 11:07:07;;;;;;;5.33;4.83;;;;;;;;;;776720;180;636158;-59
2022/08/05 11:09:39;;;;;;;4.83;4.10;;;;;;;;;;784618;180;620203;-64
2022/08/05 11:12:04;;;;;;;8.07;5.13;;;;;;;;;;779810;180;628510;-59
2022/08/05 11:14:31;;;;;;;6.20;4.77;;;;;;;;;;773823;180;853382;-59
2022/08/05 11:17:15;;;;;;;4.43;3.90;;;;;;;;;;782230;180;626572;-60
2022/08/05 11:19:45;;;;;;;8.60;4.53;;;;;;;;;;773833;180;620164;-60
2022/08/05 11:22:16;;;;;;;6.17;4.97;;;;;;;;;;784592;179;631033;-61
2022/08/05 11:24:43;;;;;;;4.77;3.90;;;;;;;;;;782156;179;625594;-58
2022/08/05 11:27:14;;;;;;;4.90;4.20;;;;;;;;;;783569;180;628514;-63
2022/08/05 11:29:42;;;;;;;5.30;4.30;;;;;;;;;;785329;175;629217;-87
2022/08/05 11:32:13;;;;;;;5.23;4.40;;;;;;;;;;778567;179;620307;-86
2022/08/05 11:34:39;;;;;;;6.70;3.60;;;;;;;;;;772883;180;631358;-85
2022/08/05 11:37:05;;;;;;;6.30;4.67;;;;;;;;;;771824;179;641906;-90
2022/08/05 11:39:50;;;;;;;5.50;4.30;;;;;;;;;;787060;176;634199;-86
2022/08/05 11:42:16;;;;;;;8.20;4.27;;;;;;;;;;785540;178;628365;-91
2022/08/05 11:44:41;;;;;;;4.27;3.60;;;;;;;;;;790798;179;633208;-89
2022/08/05 11:47:07;;;;;;;4.50;4.10;;;;;;;;;;783945;177;626004;-90
2022/08/05 11:49:33;;;;;;;5.00;4.30;;;;;;;;;;782767;177;669882;-89
2022/08/05 11:51:59;;;;;;;5.07;4.03;;;;;;;;;;790180;179;628847;-92
2022/08/05 11:54:26;;;;;;;5.10;3.87;;;;;;;;;;786499;176;636776;-89
2022/08/05 11:56:52;;;;;;;5.17;4.20;;;;;;;;;;786508;176;645025;-91
2022/08/05 11:59:18;;;;;;;4.60;3.85;;;;;;;;;;789314;176;626912;-88
2022/08/05 12:01:50;;;;;;;6.50;4.43;;;;;;;;;;787536;176;635556;-90
2022/08/05 12:04:16;;;;;;;8.87;4.70;;;;;;;;;;782268;179;741489;-89
2022/08/05 12:06:41;;;;;;;4.67;4.17;;;;;;;;;;787569;177;663953;-89
2022/08/05 12:09:08;;;;;;;8.77;4.87;;;;;;;;;;790314;177;662742;-91
2022/08/05 12:11:33;;;;;;;7.13;4.37;;;;;;;;;;777307;176;635681;-87
2022/08/05 12:13:59;;;;;;;6.03;4.37;;;;;;;;;;786909;176;628522;-88
2022/08/05 12:16:25;;;;;;;5.17;4.10;;;;;;;;;;790888;176;636657;-89
2022/08/05 12:18:51;;;;;;;6.90;4.23;;;;;;;;;;785861;176;705027;-92
2022/08/05 12:21:17;;;;;;;6.07;4.20;;;;;;;;;;783799;179;689110;-88
2022/08/05 12:23:49;;;;;;;11.90;4.07;;;;;;;;;;785304;177;622096;-94
2022/08/05 12:26:15;;;;;;;3.97;3.57;;;;;;;;;;791545;177;636573;-90
2022/08/05 12:28:41;;;;;;;7.80;4.27;;;;;;;;;;786318;177;675097;-90
2022/08/05 12:31:06;;;;;;;5.90;4.13;;;;;;;;;;786270;178;624822;-88
2022/08/05 12:33:32;;;;;;;4.20;3.80;;;;;;;;;;792599;175;628269;-90
2022/08/05 12:35:58;;;;;;;6.00;4.30;;;;;;;;;;790640;175;633208;-88
2022/08/05 12:38:24;;;;;;;6.00;4.80;;;;;;;;;;785227;175;1166161;-92
2022/08/05 12:40:50;;;;;;;10.43;4.50;;;;;;;;;;787160;176;621563;-93
2022/08/05 12:43:16;;;;;;;8.70;4.37;;;;;;;;;;789179;176;711989;-91
2022/08/05 12:45:48;;;;;;;5.10;4.30;;;;;;;;;;787815;176;675476;-89
2022/08/05 12:48:14;;;;;;;5.43;3.67;;;;;;;;;;786803;176;645798;-92
2022/08/05 12:50:39;;;;;;;6.37;3.90;;;;;;;;;;790987;176;637460;-91
2022/08/05 12:53:05;;;;;;;5.53;3.93;;;;;;;;;;786836;176;687788;-91
2022/08/05 12:55:31;;;;;;;10.33;4.97;;;;;;;;;;786391;177;672017;-89
2022/08/05 12:57:57;;;;;;;5.93;3.60;;;;;;;;;;786608;179;639487;-89
2022/08/05 13:00:23;;;;;;;5.73;4.43;;;;;;;;;;792119;176;632197;-90
2022/08/05 13:02:49;;;;;;;8.97;5.07;;;;;;;;;;786508;176;811479;-92
2022/08/05 13:05:15;;;;;;;5.33;4.03;;;;;;;;;;787208;176;636139;-92
2022/08/05 13:07:40;;;;;;;8.03;3.60;;;;;;;;;;779329;179;701472;-90
2022/08/05 13:10:09;;;;;;;8.40;4.63;;;;;;;;;;771789;182;653074;-90
2022/08/05 13:12:35;;;;;;;8.17;4.40;;;;;;;;;;781059;176;672844;-89
2022/08/05 13:15:01;;;;;;;5.20;4.20;;;;;;;;;;787052;176;629463;-89
2022/08/05 13:17:27;;;;;;;5.97;4.70;;;;;;;;;;782387;179;682106;-91
2022/08/05 13:19:57;;;;;;;5.03;4.50;;;;;;;;;;784192;176;688470;-91
2022/08/05 13:22:24;;;;;;;5.60;4.63;;;;;;;;;;785809;176;644183;-89
2022/08/05 13:24:49;;;;;;;5.30;4.80;;;;;;;;;;791754;175;625489;-94
2022/08/05 13:27:21;;;;;;;10.17;4.50;;;;;;;;;;787127;176;657228;-91
2022/08/05 13:29:47;;;;;;;5.30;4.07;;;;;;;;;;775970;179;630464;-91
2022/08/05 13:32:13;;;;;;;7.43;4.20;;;;;;;;;;786693;176;702566;-92
2022/08/05 13:34:39;;;;;;;8.83;4.60;;;;;;;;;;791612;176;648165;-92
2022/08/05 13:37:04;;;;;;;7.23;4.73;;;;;;;;;;786511;176;641331;-92
2022/08/05 13:39:30;;;;;;;6.30;4.00;;;;;;;;;;787569;176;644703;-92
2022/08/05 13:41:56;;;;;;;6.17;4.33;;;;;;;;;;792748;178;814199;-91
2022/08/05 13:44:22;;;;;;;7.87;4.10;;;;;;;;;;787179;178;636780;-89
2022/08/05 13:46:48;;;;;;;7.90;4.30;;;;;;;;;;782442;176;623538;-89
2022/08/05 13:49:14;;;;;;;6.67;4.20;;;;;;;;;;792519;176;629184;-89
2022/08/05 13:51:40;;;;;;;4.73;3.90;;;;;;;;;;787673;175;633635;-89
2022/08/05 13:54:05;;;;;;;4.70;3.57;;;;;;;;;;786812;175;667238;-91
2022/08/05 13:56:31;;;;;;;4.87;4.07;;;;;;;;;;786466;176;644059;-89
2022/08/05 13:58:57;;;;;;;8.30;3.87;;;;;;;;;;786295;179;707084;-87
2022/08/05 14:01:23;;;;;;;5.37;4.30;;;;;;;;;;788807;177;668949;-93
2022/08/05 14:05:09;;;;;;;6.90;3.70;;;;;;;;;;788767;176;655931;-89
2022/08/05 14:06:15;;;;;;;5.70;4.10;;;;;;;;;;788321;176;675659;-88
2022/08/05 14:08:41;;;;;;;4.60;3.60;;;;;;;;;;787472;176;715395;-90
2022/08/05 14:11:07;;;;;;;6.70;5.10;;;;;;;;;;789380;176;664824;-91
2022/08/05 14:13:32;;;;;;;5.10;4.60;;;;;;;;;;792748;176;630064;-88
2022/08/05 14:15:58;;;;;;;5.10;3.67;;;;;;;;;;788282;176;672753;-88
2022/08/05 14:18:24;;;;;;;5.33;4.00;;;;;;;;;;788240;176;640927;-88
2022/08/05 14:20:50;;;;;;;5.50;4.47;;;;;;;;;;787760;176;627830;-89
2022/08/05 14:23:16;;;;;;;4.40;3.97;;;;;;;;;;778177;177;623414;-90